Climatologie pour Saint-Brevin les Pins
Jour • Résumé pour décembre 2, 2017 Système :  Métrique    Anglais   Mixte
« - 1 jour
+ 1 jour »
Jour Semaine Mois Année Personnalisé
  Maximum : Minimum : Moyenne :
Température sous abri : 9.7 °C -0.1 °C 3.2 °C
Point de rosée : 5.4 °C -0.8 °C 1.8 °C
Humidité : 98 % 70 % 91 %
Vitesse du vent : 22.5 km/h 0.0 km/h 3.7 km/h
Rafale : 22.5 km/h - -
Direction :- - SSW
Pression : 1029.7 hPa 1025.3 hPa -
Précipitations : 0.3 mm    
Historical Graphs
 
 
Tableau de données pour décembre 2, 2017
Heure Tempé Pt rosée Pression Vent Vitesse Rafale Humidité Taux pluie (/hr) Soleil
00:10 3.3 °C 2.5 °C 1025.3 hPa NNE 1.6 km/h 12.9 km/h 94 % 0.0 mm 0 W/m2
00:15 3.4 °C 2.6 °C 1025.3 hPa North 1.6 km/h 8.0 km/h 94 % 0.0 mm 0 W/m2
00:20 3.5 °C 2.8 °C 1025.3 hPa North 6.4 km/h 9.7 km/h 95 % 0.0 mm 0 W/m2
00:25 3.4 °C 2.6 °C 1025.3 hPa NNE 1.6 km/h 12.9 km/h 94 % 0.0 mm 0 W/m2
00:30 3.6 °C 2.7 °C 1025.6 hPa NNE 6.4 km/h 17.7 km/h 94 % 0.0 mm 0 W/m2
00:35 3.4 °C 2.6 °C 1025.6 hPa Calm   17.7 km/h 94 % 0.0 mm 0 W/m2
00:40 3.2 °C 2.3 °C 1025.6 hPa North 3.2 km/h 12.9 km/h 94 % 0.0 mm 0 W/m2
00:45 2.9 °C 2.1 °C 1025.6 hPa NNW 8.0 km/h 11.3 km/h 94 % 0.0 mm 0 W/m2
00:50 2.8 °C 2.0 °C 1025.6 hPa NNW 4.8 km/h 12.9 km/h 94 % 0.0 mm 0 W/m2
00:55 2.7 °C 1.9 °C 1025.6 hPa NNW 6.4 km/h 12.9 km/h 94 % 0.0 mm 0 W/m2
01:00 2.4 °C 1.4 °C 1025.6 hPa NE 3.2 km/h 9.7 km/h 93 % 0.0 mm 0 W/m2
01:05 2.3 °C 1.4 °C 1025.6 hPa North 4.8 km/h 11.3 km/h 94 % 0.0 mm 0 W/m2
01:10 2.2 °C 1.4 °C 1025.6 hPa North 8.0 km/h 11.3 km/h 94 % 0.0 mm 0 W/m2
01:20 2.1 °C 1.2 °C 1025.6 hPa North 1.6 km/h 12.9 km/h 94 % 0.0 mm 0 W/m2
01:25 2.0 °C 1.1 °C 1025.6 hPa NNE 9.7 km/h 12.9 km/h 94 % 0.0 mm 0 W/m2
01:30 2.0 °C 1.3 °C 1025.6 hPa NNW 6.4 km/h 14.5 km/h 95 % 0.0 mm 0 W/m2
01:35 1.9 °C 1.2 °C 1025.6 hPa NW 8.0 km/h 14.5 km/h 95 % 0.0 mm 0 W/m2
01:55 1.7 °C 1.0 °C 1025.6 hPa NNE 4.8 km/h 11.3 km/h 95 % 0.0 mm 0 W/m2
02:00 1.7 °C 1.0 °C 1025.6 hPa NNW 6.4 km/h 11.3 km/h 95 % 0.0 mm 0 W/m2
02:05 1.6 °C 0.9 °C 1025.6 hPa North 1.6 km/h 11.3 km/h 95 % 0.0 mm 0 W/m2
02:10 1.4 °C 0.7 °C 1025.6 hPa North 3.2 km/h 9.7 km/h 95 % 0.0 mm 0 W/m2
02:20 1.2 °C 0.5 °C 1025.6 hPa NW 4.8 km/h 8.0 km/h 95 % 0.0 mm 0 W/m2
02:25 1.3 °C 0.6 °C 1025.6 hPa North 9.7 km/h 9.7 km/h 95 % 0.0 mm 0 W/m2
02:30 1.3 °C 0.7 °C 1025.6 hPa North 3.2 km/h 12.9 km/h 96 % 0.0 mm 0 W/m2
02:40 1.4 °C 0.8 °C 1025.6 hPa NNW 1.6 km/h 11.3 km/h 96 % 0.0 mm 0 W/m2
02:45 1.4 °C 0.9 °C 1025.6 hPa NNW 3.2 km/h 11.3 km/h 96 % 0.0 mm 0 W/m2
02:50 1.2 °C 0.7 °C 1025.6 hPa NNW 1.6 km/h 8.0 km/h 96 % 0.0 mm 0 W/m2
02:55 1.2 °C 0.6 °C 1025.6 hPa NNW 4.8 km/h 11.3 km/h 96 % 0.0 mm 0 W/m2
03:00 1.4 °C 0.8 °C 1026.0 hPa North 3.2 km/h 16.1 km/h 96 % 0.0 mm 0 W/m2
03:10 1.6 °C 1.0 °C 1026.0 hPa North 4.8 km/h 12.9 km/h 96 % 0.0 mm 0 W/m2
03:15 1.5 °C 0.9 °C 1026.0 hPa Calm   12.9 km/h 96 % 0.0 mm 0 W/m2
03:30 1.5 °C 0.9 °C 1026.0 hPa North 4.8 km/h 9.7 km/h 96 % 0.0 mm 0 W/m2
03:35 1.3 °C 0.8 °C 1026.0 hPa NNW 4.8 km/h 9.7 km/h 96 % 0.0 mm 0 W/m2
03:45 1.2 °C 0.6 °C 1026.0 hPa North 8.0 km/h 12.9 km/h 96 % 0.0 mm 0 W/m2
03:55 1.2 °C 0.7 °C 1026.0 hPa North 4.8 km/h 9.7 km/h 96 % 0.0 mm 0 W/m2
04:05 1.1 °C 0.5 °C 1026.0 hPa North 8.0 km/h 14.5 km/h 96 % 0.0 mm 0 W/m2
04:10 1.2 °C 0.6 °C 1026.0 hPa North 8.0 km/h 14.5 km/h 96 % 0.0 mm 0 W/m2
04:15 1.3 °C 0.9 °C 1026.0 hPa NNW 1.6 km/h 11.3 km/h 97 % 0.0 mm 0 W/m2
04:25 1.2 °C 0.6 °C 1026.0 hPa NNW 4.8 km/h 9.7 km/h 96 % 0.0 mm 0 W/m2
04:30 1.0 °C 0.4 °C 1026.0 hPa NNW 4.8 km/h 14.5 km/h 96 % 0.0 mm 0 W/m2
04:35 1.1 °C 0.5 °C 1026.0 hPa NNW 1.6 km/h 14.5 km/h 96 % 0.0 mm 0 W/m2
04:40 1.0 °C 0.4 °C 1026.0 hPa Calm   14.5 km/h 96 % 0.0 mm 0 W/m2
04:45 1.2 °C 0.6 °C 1026.0 hPa North 3.2 km/h 14.5 km/h 96 % 0.0 mm 0 W/m2
05:00 1.2 °C 0.6 °C 1026.3 hPa NNW 6.4 km/h 11.3 km/h 96 % 0.0 mm 0 W/m2
05:05 1.2 °C 0.7 °C 1026.3 hPa NNW 3.2 km/h 11.3 km/h 96 % 0.0 mm 0 W/m2
05:15 0.9 °C 0.3 °C 1026.3 hPa NW 4.8 km/h 9.7 km/h 96 % 0.0 mm 0 W/m2
05:30 0.8 °C 0.2 °C 1026.0 hPa NNW 3.2 km/h 14.5 km/h 96 % 0.0 mm 0 W/m2
05:35 0.9 °C 0.5 °C 1026.3 hPa NNW 4.8 km/h 11.3 km/h 97 % 0.0 mm 0 W/m2
05:45 1.3 °C 0.9 °C 1026.0 hPa North 6.4 km/h 11.3 km/h 97 % 0.0 mm 0 W/m2
05:50 1.2 °C 0.6 °C 1026.3 hPa NNE 1.6 km/h 12.9 km/h 96 % 0.0 mm 0 W/m2
05:55 1.3 °C 0.9 °C 1026.3 hPa NW 6.4 km/h 12.9 km/h 97 % 0.0 mm 0 W/m2
06:00 1.3 °C 0.9 °C 1026.3 hPa NNE 8.0 km/h 12.9 km/h 97 % 0.0 mm 0 W/m2
06:05 1.6 °C 1.1 °C 1026.0 hPa NNW 6.4 km/h 12.9 km/h 97 % 0.0 mm 0 W/m2
06:15 1.2 °C 0.7 °C 1026.3 hPa North 1.6 km/h 9.7 km/h 96 % 0.0 mm 0 W/m2
06:20 1.2 °C 0.6 °C 1026.3 hPa North 6.4 km/h 8.0 km/h 96 % 0.0 mm 0 W/m2
06:25 1.1 °C 0.5 °C 1026.3 hPa NNW 6.4 km/h 8.0 km/h 96 % 0.0 mm 0 W/m2
06:30 1.0 °C 0.4 °C 1026.3 hPa North 3.2 km/h 8.0 km/h 96 % 0.0 mm 0 W/m2
06:35 1.0 °C 0.4 °C 1026.3 hPa Calm   8.0 km/h 96 % 0.0 mm 0 W/m2
06:40 0.9 °C 0.4 °C 1026.3 hPa NNW 8.0 km/h 9.7 km/h 96 % 0.0 mm 0 W/m2
06:45 0.8 °C 0.4 °C 1026.3 hPa NNW 9.7 km/h 9.7 km/h 97 % 0.0 mm 0 W/m2
06:50 0.9 °C 0.5 °C 1026.3 hPa NNW 1.6 km/h 14.5 km/h 97 % 0.0 mm 0 W/m2
06:55 1.1 °C 0.6 °C 1026.3 hPa NNW 8.0 km/h 14.5 km/h 97 % 0.0 mm 0 W/m2
07:00 1.2 °C 0.8 °C 1026.3 hPa North 1.6 km/h 16.1 km/h 97 % 0.0 mm 0 W/m2
07:15 0.9 °C 0.5 °C 1026.3 hPa NNW 3.2 km/h 6.4 km/h 97 % 0.0 mm 0 W/m2
07:20 0.9 °C 0.5 °C 1026.3 hPa North 3.2 km/h 12.9 km/h 97 % 0.0 mm 0 W/m2
07:25 0.5 °C -0.1 °C 1026.3 hPa NNW 11.3 km/h 12.9 km/h 96 % 0.0 mm 0 W/m2
07:30 0.6 °C 0.1 °C 1026.3 hPa North 9.7 km/h 12.9 km/h 97 % 0.0 mm 0 W/m2
07:35 0.8 °C 0.4 °C 1026.3 hPa Calm   11.3 km/h 97 % 0.0 mm 0 W/m2
07:40 0.9 °C 0.5 °C 1026.3 hPa NNW 3.2 km/h 11.3 km/h 97 % 0.0 mm 0 W/m2
07:45 0.9 °C 0.5 °C 1026.3 hPa NNW 1.6 km/h 8.0 km/h 97 % 0.0 mm 0 W/m2
07:50 0.8 °C 0.4 °C 1026.3 hPa Calm   8.0 km/h 97 % 0.0 mm 0 W/m2
07:55 0.8 °C 0.4 °C 1026.6 hPa NNW 3.2 km/h 9.7 km/h 97 % 0.0 mm 0 W/m2
08:00 0.7 °C 0.3 °C 1026.6 hPa NNW 6.4 km/h 9.7 km/h 97 % 0.0 mm 0 W/m2
08:05 0.8 °C 0.4 °C 1026.6 hPa NNW 3.2 km/h 11.3 km/h 97 % 0.0 mm 0 W/m2
08:10 0.7 °C 0.3 °C 1026.6 hPa North 3.2 km/h 11.3 km/h 97 % 0.0 mm 0 W/m2
08:20 0.6 °C 0.1 °C 1026.6 hPa NNW 4.8 km/h 8.0 km/h 97 % 0.0 mm 0 W/m2
08:30 0.7 °C 0.3 °C 1026.6 hPa NNW 1.6 km/h 8.0 km/h 97 % 0.0 mm 0 W/m2
08:35 0.7 °C 0.2 °C 1026.6 hPa NNW 1.6 km/h 8.0 km/h 97 % 0.0 mm 7 W/m2
08:40 0.8 °C 0.4 °C 1026.6 hPa NNW 3.2 km/h 8.0 km/h 97 % 0.0 mm 7 W/m2
08:50 1.2 °C 0.8 °C 1027.0 hPa Calm   12.9 km/h 97 % 0.0 mm 11 W/m2
09:00 1.1 °C 0.6 °C 1027.0 hPa North 6.4 km/h 9.7 km/h 97 % 0.0 mm 16 W/m2
09:10 1.3 °C 0.9 °C 1027.0 hPa Calm   9.7 km/h 97 % 0.0 mm 30 W/m2
09:15 1.4 °C 1.0 °C 1027.0 hPa NNW 1.6 km/h 8.0 km/h 97 % 0.0 mm 30 W/m2
09:20 1.6 °C 1.2 °C 1027.0 hPa NNW 4.8 km/h 8.0 km/h 97 % 0.0 mm 35 W/m2
09:25 1.8 °C 1.4 °C 1027.0 hPa NNW 1.6 km/h 9.7 km/h 97 % 0.0 mm 40 W/m2
09:30 1.9 °C 1.5 °C 1027.3 hPa NW 3.2 km/h 9.7 km/h 97 % 0.0 mm 40 W/m2
09:35 2.1 °C 1.6 °C 1027.3 hPa NNW 1.6 km/h 11.3 km/h 97 % 0.0 mm 39 W/m2
09:40 2.2 °C 1.7 °C 1027.3 hPa NNW 4.8 km/h 11.3 km/h 97 % 0.0 mm 40 W/m2
09:45 2.2 °C 1.8 °C 1027.3 hPa North 1.6 km/h 8.0 km/h 97 % 0.0 mm 40 W/m2
09:50 2.3 °C 1.9 °C 1027.3 hPa Calm   9.7 km/h 97 % 0.0 mm 39 W/m2
09:55 2.4 °C 2.0 °C 1027.3 hPa NW 6.4 km/h 9.7 km/h 97 % 0.0 mm 39 W/m2
10:00 2.6 °C 2.1 °C 1027.3 hPa NW 4.8 km/h 8.0 km/h 97 % 0.0 mm 40 W/m2
10:05 2.7 °C 2.2 °C 1027.3 hPa NNW 3.2 km/h 8.0 km/h 97 % 0.0 mm 47 W/m2
10:10 2.9 °C 2.5 °C 1027.7 hPa Calm   8.0 km/h 97 % 0.0 mm 93 W/m2
10:20 3.6 °C 3.3 °C 1027.7 hPa NNE 9.7 km/h 14.5 km/h 98 % 0.0 mm 227 W/m2
10:25 3.9 °C 3.5 °C 1027.7 hPa NNE 6.4 km/h 14.5 km/h 97 % 0.0 mm 248 W/m2
10:30 4.3 °C 3.8 °C 1027.7 hPa Calm   12.9 km/h 97 % 0.0 mm 250 W/m2
10:40 4.7 °C 4.1 °C 1027.7 hPa NNW 1.6 km/h 11.3 km/h 96 % 0.0 mm 253 W/m2
10:45 4.8 °C 4.1 °C 1027.7 hPa North 4.8 km/h 11.3 km/h 95 % 0.0 mm 253 W/m2
10:50 5.1 °C 4.2 °C 1027.7 hPa North 4.8 km/h 11.3 km/h 94 % 0.0 mm 239 W/m2
11:00 4.9 °C 3.8 °C 1028.0 hPa NNW 3.2 km/h 11.3 km/h 92 % 0.0 mm 241 W/m2
11:20 5.6 °C 4.2 °C 1028.0 hPa NNE 4.8 km/h 9.7 km/h 91 % 0.0 mm 265 W/m2
11:25 5.7 °C 4.2 °C 1028.0 hPa North 8.0 km/h 16.1 km/h 90 % 0.0 mm 271 W/m2
11:30 5.9 °C 4.2 °C 1028.0 hPa NNE 3.2 km/h 16.1 km/h 89 % 0.0 mm 276 W/m2
11:35 6.0 °C 4.3 °C 1028.0 hPa NW 3.2 km/h 16.1 km/h 89 % 0.0 mm 281 W/m2
11:40 6.2 °C 4.4 °C 1028.0 hPa NE 3.2 km/h 12.9 km/h 88 % 0.0 mm 287 W/m2
11:45 6.5 °C 4.7 °C 1027.7 hPa NNE 11.3 km/h 14.5 km/h 88 % 0.0 mm 292 W/m2
11:50 6.7 °C 4.7 °C 1028.0 hPa NNE 3.2 km/h 14.5 km/h 87 % 0.0 mm 295 W/m2
11:55 6.8 °C 4.8 °C 1027.7 hPa NNE 8.0 km/h 12.9 km/h 87 % 0.0 mm 299 W/m2
12:00 7.0 °C 4.6 °C 1027.7 hPa North 3.2 km/h 14.5 km/h 85 % 0.0 mm 301 W/m2
12:05 7.1 °C 4.6 °C 1027.7 hPa NNE 11.3 km/h 14.5 km/h 84 % 0.0 mm 308 W/m2
12:10 7.1 °C 4.8 °C 1027.7 hPa NNW 4.8 km/h 14.5 km/h 85 % 0.0 mm 309 W/m2
12:20 7.4 °C 4.9 °C 1027.7 hPa NE 6.4 km/h 17.7 km/h 84 % 0.0 mm 315 W/m2
12:25 7.6 °C 5.0 °C 1027.7 hPa North 11.3 km/h 17.7 km/h 84 % 0.0 mm 311 W/m2
12:30 7.7 °C 5.0 °C 1027.7 hPa NNE 3.2 km/h 14.5 km/h 83 % 0.0 mm 311 W/m2
12:35 8.3 °C 5.2 °C 1027.7 hPa NNE 14.5 km/h 19.3 km/h 81 % 0.0 mm 313 W/m2
12:40 8.3 °C 4.8 °C 1027.7 hPa North 3.2 km/h 19.3 km/h 79 % 0.0 mm 315 W/m2
12:45 8.5 °C 4.9 °C 1027.7 hPa NE 22.5 km/h 22.5 km/h 78 % 0.0 mm 299 W/m2
13:00 8.7 °C 4.7 °C 1027.7 hPa NNE 12.9 km/h 20.9 km/h 76 % 0.0 mm 315 W/m2
13:05 9.0 °C 5.4 °C 1027.7 hPa NNE 9.7 km/h 20.9 km/h 78 % 0.0 mm 315 W/m2
13:10 8.9 °C 4.7 °C 1027.7 hPa NE 9.7 km/h 17.7 km/h 75 % 0.0 mm 313 W/m2
13:15 8.9 °C 4.7 °C 1027.3 hPa NNE 12.9 km/h 17.7 km/h 75 % 0.0 mm 316 W/m2
13:20 9.1 °C 4.9 °C 1027.7 hPa North 8.0 km/h 17.7 km/h 75 % 0.0 mm 316 W/m2
13:40 9.3 °C 4.7 °C 1027.3 hPa NNE 6.4 km/h 17.7 km/h 73 % 0.0 mm 309 W/m2
13:45 9.2 °C 4.8 °C 1027.3 hPa WNW 3.2 km/h 17.7 km/h 74 % 0.3 mm 306 W/m2
13:50 9.2 °C 4.6 °C 1027.3 hPa NNE 11.3 km/h 19.3 km/h 73 % 0.3 mm 302 W/m2
13:55 9.3 °C 4.9 °C 1027.3 hPa NNE 4.8 km/h 19.3 km/h 74 % 0.3 mm 299 W/m2
14:00 9.3 °C 4.7 °C 1027.3 hPa NNE 8.0 km/h 22.5 km/h 73 % 0.3 mm 301 W/m2
14:05 8.9 °C 4.2 °C 1027.3 hPa ENE 8.0 km/h 22.5 km/h 72 % 0.3 mm 160 W/m2
14:10 9.2 °C 4.8 °C 1027.3 hPa NNW 8.0 km/h 20.9 km/h 74 % 0.3 mm 306 W/m2
14:15 9.4 °C 4.6 °C 1027.0 hPa NNE 6.4 km/h 17.7 km/h 72 % 0.3 mm 327 W/m2
14:20 9.7 °C 4.9 °C 1027.3 hPa North 16.1 km/h 17.7 km/h 72 % 0.3 mm 373 W/m2
14:25 9.6 °C 4.4 °C 1027.3 hPa NE 8.0 km/h 19.3 km/h 70 % 0.3 mm 265 W/m2
14:45 8.9 °C 4.7 °C 1027.0 hPa NE 8.0 km/h 14.5 km/h 75 % 0.0 mm 251 W/m2
14:55 9.0 °C 4.0 °C 1027.0 hPa NNE 11.3 km/h 17.7 km/h 71 % 0.0 mm 241 W/m2
15:00 9.2 °C 4.4 °C 1027.0 hPa Calm   17.7 km/h 72 % 0.0 mm 216 W/m2
15:05 9.2 °C 4.2 °C 1027.0 hPa NE 8.0 km/h 14.5 km/h 71 % 0.0 mm 236 W/m2
15:10 9.3 °C 4.5 °C 1027.0 hPa NNE 16.1 km/h 19.3 km/h 72 % 0.0 mm 229 W/m2
15:20 8.7 °C 4.0 °C 1027.3 hPa NE 3.2 km/h 17.7 km/h 72 % 0.0 mm 250 W/m2
15:25 9.0 °C 4.6 °C 1027.3 hPa NE 6.4 km/h 14.5 km/h 74 % 0.0 mm 185 W/m2
15:35 8.4 °C 3.6 °C 1027.3 hPa NE 11.3 km/h 19.3 km/h 72 % 0.0 mm 49 W/m2
15:40 7.9 °C 3.4 °C 1027.3 hPa NNE 11.3 km/h 19.3 km/h 73 % 0.0 mm 40 W/m2
15:45 7.6 °C 3.2 °C 1027.3 hPa NE 3.2 km/h 20.9 km/h 74 % 0.0 mm 42 W/m2
15:50 7.3 °C 3.2 °C 1027.3 hPa North 3.2 km/h 20.9 km/h 75 % 0.0 mm 35 W/m2
15:55 7.1 °C 3.3 °C 1027.3 hPa NNE 8.0 km/h 12.9 km/h 77 % 0.0 mm 35 W/m2
16:00 7.0 °C 3.4 °C 1027.3 hPa Calm   12.9 km/h 78 % 0.0 mm 88 W/m2
16:15 7.6 °C 3.8 °C 1027.3 hPa NNE 3.2 km/h 17.7 km/h 77 % 0.0 mm 30 W/m2
16:20 7.5 °C 3.5 °C 1027.7 hPa North 4.8 km/h 17.7 km/h 76 % 0.0 mm 28 W/m2
16:25 7.3 °C 3.4 °C 1027.7 hPa North 6.4 km/h 16.1 km/h 76 % 0.0 mm 28 W/m2
16:30 7.2 °C 3.5 °C 1027.7 hPa Calm   16.1 km/h 77 % 0.0 mm 28 W/m2
16:35 7.2 °C 3.4 °C 1027.7 hPa North 6.4 km/h 9.7 km/h 77 % 0.0 mm 26 W/m2
16:45 6.8 °C 3.3 °C 1027.7 hPa NNW 6.4 km/h 11.3 km/h 78 % 0.0 mm 18 W/m2
16:50 6.5 °C 3.1 °C 1027.7 hPa North 6.4 km/h 8.0 km/h 79 % 0.0 mm 14 W/m2
17:00 6.2 °C 3.0 °C 1027.7 hPa Calm   6.4 km/h 80 % 0.0 mm 9 W/m2
17:05 5.6 °C 2.6 °C 1028.0 hPa Calm   6.4 km/h 81 % 0.0 mm 7 W/m2
17:10 5.2 °C 2.6 °C 1027.7 hPa Calm   4.8 km/h 83 % 0.0 mm 5 W/m2
17:15 4.9 °C 2.5 °C 1027.7 hPa Calm   4.8 km/h 84 % 0.0 mm 5 W/m2
17:20 4.7 °C 2.4 °C 1028.0 hPa Calm   1.6 km/h 85 % 0.0 mm 0 W/m2
17:25 4.6 °C 2.4 °C 1028.0 hPa Calm     86 % 0.0 mm 0 W/m2
17:30 4.3 °C 2.3 °C 1028.0 hPa Calm     87 % 0.0 mm 0 W/m2
17:35 4.2 °C 2.2 °C 1028.0 hPa Calm     87 % 0.0 mm 0 W/m2
17:45 3.7 °C 1.9 °C 1028.0 hPa Calm     88 % 0.0 mm 0 W/m2
17:55 3.1 °C 1.4 °C 1028.0 hPa Calm     89 % 0.0 mm 0 W/m2
18:00 2.8 °C 1.4 °C 1028.0 hPa Calm     90 % 0.0 mm 0 W/m2
18:05 2.9 °C 1.6 °C 1028.0 hPa Calm     91 % 0.0 mm 0 W/m2
18:10 2.6 °C 1.2 °C 1028.0 hPa Calm     91 % 0.0 mm 0 W/m2
18:15 2.3 °C 1.0 °C 1028.0 hPa Calm     91 % 0.0 mm 0 W/m2
18:20 2.1 °C 0.9 °C 1028.0 hPa Calm     92 % 0.0 mm 0 W/m2
18:25 2.1 °C 0.9 °C 1028.3 hPa Calm     92 % 0.0 mm 0 W/m2
18:30 1.9 °C 0.8 °C 1028.0 hPa Calm     92 % 0.0 mm 0 W/m2
18:35 1.8 °C 0.7 °C 1028.3 hPa Calm     92 % 0.0 mm 0 W/m2
18:55 1.4 °C 0.4 °C 1028.3 hPa Calm     93 % 0.0 mm 0 W/m2
19:00 1.3 °C 0.3 °C 1028.7 hPa Calm     93 % 0.0 mm 0 W/m2
19:05 1.3 °C 0.5 °C 1028.7 hPa Calm     94 % 0.0 mm 0 W/m2
19:10 1.1 °C 0.1 °C 1028.7 hPa Calm     93 % 0.0 mm 0 W/m2
19:15 1.2 °C 0.3 °C 1028.7 hPa Calm     94 % 0.0 mm 0 W/m2
19:20 1.1 °C 0.2 °C 1028.7 hPa Calm     94 % 0.0 mm 0 W/m2
19:25 1.2 °C 0.3 °C 1028.7 hPa Calm     94 % 0.0 mm 0 W/m2
19:30 1.2 °C 0.3 °C 1028.7 hPa Calm     94 % 0.0 mm 0 W/m2
19:35 1.3 °C 0.4 °C 1028.7 hPa Calm     94 % 0.0 mm 0 W/m2
19:40 1.2 °C 0.3 °C 1028.7 hPa Calm     94 % 0.0 mm 0 W/m2
19:45 1.3 °C 0.4 °C 1028.7 hPa Calm     94 % 0.0 mm 0 W/m2
19:50 1.2 °C 0.3 °C 1029.0 hPa Calm     94 % 0.0 mm 0 W/m2
19:55 1.3 °C 0.6 °C 1029.0 hPa Calm     95 % 0.0 mm 0 W/m2
20:05 1.5 °C 0.8 °C 1029.0 hPa Calm     95 % 0.0 mm 0 W/m2
20:10 1.6 °C 0.8 °C 1029.0 hPa Calm     95 % 0.0 mm 0 W/m2
20:25 1.3 °C 0.4 °C 1029.0 hPa Calm     94 % 0.0 mm 0 W/m2
20:35 1.3 °C 0.6 °C 1029.0 hPa Calm     95 % 0.0 mm 0 W/m2
20:40 1.2 °C 0.5 °C 1029.0 hPa Calm     95 % 0.0 mm 0 W/m2
20:45 1.2 °C 0.5 °C 1029.0 hPa Calm     95 % 0.0 mm 0 W/m2
20:50 1.3 °C 0.6 °C 1029.0 hPa Calm     95 % 0.0 mm 0 W/m2
21:00 1.6 °C 0.8 °C 1029.3 hPa Calm   3.2 km/h 95 % 0.0 mm 0 W/m2
21:05 1.6 °C 0.8 °C 1029.3 hPa Calm   3.2 km/h 95 % 0.0 mm 0 W/m2
21:10 1.7 °C 1.0 °C 1029.3 hPa ENE 4.8 km/h 4.8 km/h 95 % 0.0 mm 0 W/m2
21:15 1.7 °C 1.0 °C 1029.3 hPa ENE 3.2 km/h 4.8 km/h 95 % 0.0 mm 0 W/m2
21:20 1.5 °C 0.8 °C 1029.3 hPa Calm   4.8 km/h 95 % 0.0 mm 0 W/m2
21:25 1.6 °C 0.8 °C 1029.3 hPa Calm   3.2 km/h 95 % 0.0 mm 0 W/m2
21:30 1.4 °C 0.7 °C 1029.3 hPa Calm     95 % 0.0 mm 0 W/m2
21:35 1.2 °C 0.3 °C 1029.3 hPa Calm     94 % 0.0 mm 0 W/m2
21:40 1.2 °C 0.5 °C 1029.3 hPa Calm     95 % 0.0 mm 0 W/m2
21:45 0.9 °C 0.2 °C 1029.3 hPa Calm     95 % 0.0 mm 0 W/m2
22:05 0.4 °C -0.5 °C 1029.3 hPa Calm     94 % 0.0 mm 0 W/m2
22:10 0.5 °C -0.2 °C 1029.3 hPa Calm     95 % 0.0 mm 0 W/m2
22:15 0.6 °C -0.1 °C 1029.3 hPa Calm     95 % 0.0 mm 0 W/m2
22:25 0.2 °C -0.5 °C 1029.3 hPa Calm     95 % 0.0 mm 0 W/m2
22:35 -0.1 °C -0.8 °C 1029.3 hPa Calm     95 % 0.0 mm 0 W/m2
22:40 0.1 °C -0.6 °C 1029.3 hPa Calm     95 % 0.0 mm 0 W/m2
22:45 0.3 °C -0.2 °C 1029.3 hPa Calm     96 % 0.0 mm 0 W/m2
22:55 0.6 °C 0.0 °C 1029.3 hPa Calm     96 % 0.0 mm 0 W/m2
23:00 0.7 °C 0.2 °C 1029.3 hPa Calm     96 % 0.0 mm 0 W/m2
23:05 1.0 °C 0.4 °C 1029.3 hPa Calm     96 % 0.0 mm 0 W/m2
23:10 1.1 °C 0.5 °C 1029.3 hPa Calm     96 % 0.0 mm 0 W/m2
23:15 1.1 °C 0.5 °C 1029.3 hPa Calm     96 % 0.0 mm 0 W/m2
23:20 1.2 °C 0.7 °C 1029.3 hPa Calm     96 % 0.0 mm 0 W/m2
23:25 1.4 °C 0.8 °C 1029.3 hPa Calm     96 % 0.0 mm 0 W/m2
23:30 1.5 °C 0.9 °C 1029.7 hPa Calm     96 % 0.0 mm 0 W/m2
23:35 1.7 °C 1.2 °C 1029.3 hPa Calm     96 % 0.0 mm 0 W/m2
23:40 1.7 °C 1.2 °C 1029.7 hPa Calm     96 % 0.0 mm 0 W/m2
23:45 1.7 °C 1.2 °C 1029.7 hPa Calm     96 % 0.0 mm 0 W/m2
23:55 1.8 °C 1.3 °C 1029.7 hPa Calm     96 % 0.0 mm 0 W/m2
Avec l'autorisation de Weather Underground - 1.5 mb